Time;durP1;ratioP1;P1;durP2;ratioP2;P2;SDS_P1;SDS_P2;PMS_P1;PMS_P2;Temp;Humidity;BMP_temperature;BMP_pressure;BME280_temperature;BME280_humidity;BME280_pressure;Samples;Min_cycle;Max_cycle;Signal;HPM_P1;HPM_P2
2021/12/24 00:01:01;;;;;;;8.85;6.63;;;6.00;99.90;;;;;;5091679;28;20054;-82
2021/12/24 00:03:27;;;;;;;9.75;7.00;;;6.10;99.90;;;;;;5093964;28;20534;-83
2021/12/24 00:05:53;;;;;;;11.23;7.47;;;6.20;99.90;;;;;;5093759;28;20043;-83
2021/12/24 00:08:19;;;;;;;11.10;7.85;;;6.20;99.90;;;;;;5093572;28;20124;-82
2021/12/24 00:10:48;;;;;;;17.30;12.25;;;6.10;99.90;;;;;;5093869;28;20119;-83
2021/12/24 00:13:16;;;;;;;14.07;10.13;;;6.00;99.90;;;;;;5090376;28;20079;-82
2021/12/24 00:18:32;;;;;;;20.02;13.48;;;5.80;99.90;;;;;;5091329;28;20089;-82
2021/12/24 00:36:52;;;;;;;9.50;7.07;;;5.40;99.90;;;;;;5090599;28;20074;-83
2021/12/24 00:39:18;;;;;;;10.73;6.38;;;5.70;99.90;;;;;;5075039;28;20068;-82
2021/12/24 00:41:45;;;;;;;8.85;6.35;;;5.70;99.90;;;;;;5093120;28;20046;-83
2021/12/24 00:44:11;;;;;;;8.38;6.70;;;5.60;99.90;;;;;;5090770;28;20040;-83
2021/12/24 00:46:37;;;;;;;10.40;7.40;;;5.50;99.90;;;;;;5089121;28;20557;-83
2021/12/24 00:49:04;;;;;;;21.17;12.80;;;5.50;99.90;;;;;;5091509;28;20039;-83
2021/12/24 00:51:43;;;;;;;11.90;9.10;;;5.60;99.90;;;;;;5092577;28;20051;-82
2021/12/24 00:56:54;;;;;;;13.77;8.57;;;5.40;99.90;;;;;;5090018;28;20035;-83
2021/12/24 00:59:20;;;;;;;11.55;7.95;;;5.30;99.90;;;;;;5100460;28;20539;-82
2021/12/24 01:01:46;;;;;;;10.60;7.60;;;5.30;99.90;;;;;;5093533;28;20047;-83
2021/12/24 01:04:12;;;;;;;11.32;8.68;;;5.50;99.90;;;;;;5114106;28;20536;-82
2021/12/24 01:06:38;;;;;;;11.88;8.52;;;5.80;99.90;;;;;;5114316;28;20062;-82
2021/12/24 01:09:04;;;;;;;10.75;8.32;;;5.80;99.90;;;;;;5114159;28;20039;-82
2021/12/24 01:11:30;;;;;;;13.18;9.10;;;5.70;99.90;;;;;;5113876;28;20044;-82
2021/12/24 01:13:59;;;;;;;13.00;8.75;;;5.80;99.90;;;;;;5104509;28;20126;-82
2021/12/24 01:16:56;;;;;;;10.25;7.22;;;5.90;99.90;;;;;;5093552;28;20055;-83
2021/12/24 01:19:18;;;;;;;10.73;7.55;;;6.00;99.90;;;;;;5092773;28;20529;-83
2021/12/24 01:24:35;;;;;;;10.82;7.72;;;5.90;99.90;;;;;;5093623;28;20495;-83
2021/12/24 01:29:51;;;;;;;10.85;8.48;;;5.80;99.90;;;;;;5093358;28;20380;-82
2021/12/24 01:37:57;;;;;;;9.27;6.60;;;5.40;99.90;;;;;;5093327;28;20130;-82
2021/12/24 01:42:51;;;;;;;13.32;8.95;;;5.30;99.90;;;;;;5093260;28;20094;-82
2021/12/24 01:45:28;;;;;;;11.52;8.10;;;5.30;99.90;;;;;;5092698;28;20036;-83
2021/12/24 01:47:58;;;;;;;10.60;8.15;;;5.20;99.90;;;;;;5092744;28;20039;-82
2021/12/24 01:50:27;;;;;;;15.05;8.40;;;5.20;99.90;;;;;;5092454;28;20036;-83
2021/12/24 01:52:54;;;;;;;10.93;8.27;;;5.50;99.90;;;;;;5092828;28;20442;-83
2021/12/24 01:55:20;;;;;;;12.02;8.40;;;5.00;99.90;;;;;;5093244;28;20044;-82
2021/12/24 01:57:47;;;;;;;9.65;7.57;;;5.20;99.90;;;;;;5093084;28;20044;-82
2021/12/24 02:00:18;;;;;;;11.05;7.82;;;5.40;99.90;;;;;;5092672;28;20083;-82
2021/12/24 02:02:45;;;;;;;10.32;7.18;;;5.70;99.90;;;;;;5092670;28;20046;-82
2021/12/24 02:05:11;;;;;;;14.95;8.88;;;5.80;99.90;;;;;;5092795;28;20052;-82
2021/12/24 02:07:36;;;;;;;13.60;9.48;;;5.70;99.90;;;;;;5092835;28;20443;-82
2021/12/24 02:10:08;;;;;;;11.32;8.15;;;5.40;99.90;;;;;;5092882;28;20152;-82
2021/12/24 02:12:35;;;;;;;10.55;7.88;;;5.30;99.90;;;;;;5096968;28;20040;-83
2021/12/24 02:15:09;;;;;;;13.02;8.20;;;5.40;99.90;;;;;;5097134;28;20044;-83
2021/12/24 02:28:49;;;;;;;15.75;9.57;;;5.00;99.90;;;;;;5096838;28;20043;-82
2021/12/24 02:31:20;;;;;;;15.05;9.65;;;5.10;99.90;;;;;;5096771;28;20035;-82
2021/12/24 02:33:45;;;;;;;14.52;7.65;;;5.20;99.90;;;;;;5096812;28;20067;-82
2021/12/24 02:36:12;;;;;;;10.85;8.27;;;4.90;99.90;;;;;;5096815;28;20059;-82
2021/12/24 02:38:38;;;;;;;9.77;7.32;;;5.00;99.90;;;;;;5096396;28;20031;-82
2021/12/24 02:41:06;;;;;;;10.85;7.47;;;5.30;99.90;;;;;;5096161;28;20044;-82
2021/12/24 02:43:33;;;;;;;11.43;7.60;;;5.20;99.90;;;;;;5096260;28;20024;-83
2021/12/24 02:46:07;;;;;;;10.05;7.07;;;5.30;99.90;;;;;;5096344;28;20067;-82
2021/12/24 02:54:06;;;;;;;9.05;6.72;;;5.30;99.90;;;;;;5096546;28;20109;-82
2021/12/24 02:56:36;;;;;;;10.57;7.00;;;5.50;99.90;;;;;;5096345;28;20502;-82
2021/12/24 02:59:07;;;;;;;11.45;6.75;;;5.70;99.90;;;;;;5096297;28;20039;-83
2021/12/24 03:01:36;;;;;;;8.45;5.82;;;5.70;99.90;;;;;;5096420;28;20043;-82
2021/12/24 03:04:04;;;;;;;8.13;5.95;;;5.80;99.90;;;;;;5096278;28;20039;-83
2021/12/24 03:06:34;;;;;;;7.55;5.85;;;5.90;99.90;;;;;;5096293;28;20134;-82
2021/12/24 03:09:01;;;;;;;10.15;6.72;;;5.70;99.90;;;;;;5096166;28;20043;-82
2021/12/24 03:11:27;;;;;;;8.95;5.88;;;5.40;99.90;;;;;;5096017;28;20506;-82
2021/12/24 03:13:54;;;;;;;8.77;6.28;;;5.30;99.90;;;;;;5096046;28;20036;-82
2021/12/24 03:16:21;;;;;;;8.82;6.45;;;5.30;99.90;;;;;;5095950;28;20116;-82
2021/12/24 03:18:48;;;;;;;9.25;6.03;;;5.40;99.90;;;;;;5095657;28;20048;-83
2021/12/24 03:21:26;;;;;;;9.07;6.70;;;5.50;99.90;;;;;;5095398;28;20055;-82
2021/12/24 03:26:28;;;;;;;8.57;6.00;;;5.60;99.90;;;;;;5096048;28;20040;-82
2021/12/24 03:28:54;;;;;;;7.90;6.03;;;5.30;99.90;;;;;;5095765;28;20081;-82
2021/12/24 03:31:21;;;;;;;8.25;5.97;;;5.40;99.90;;;;;;5095693;28;20587;-83
2021/12/24 03:33:48;;;;;;;8.68;5.97;;;5.40;99.90;;;;;;5095560;28;20110;-83
2021/12/24 03:36:15;;;;;;;7.97;5.88;;;5.50;99.90;;;;;;5095426;28;20052;-82
2021/12/24 03:38:40;;;;;;;8.02;5.90;;;5.70;99.90;;;;;;5095418;28;20048;-82
2021/12/24 03:41:06;;;;;;;8.25;5.50;;;5.70;99.90;;;;;;5095587;28;20047;-82
2021/12/24 03:43:33;;;;;;;14.65;11.77;;;5.60;99.90;;;;;;5095580;28;20064;-82
2021/12/24 03:46:04;;;;;;;13.68;9.52;;;5.60;99.90;;;;;;5095551;28;20035;-83
2021/12/24 03:48:46;;;;;;;;;;;5.60;99.90;;;;;;5095869;28;20046;-83
2021/12/24 03:56:26;;;;;;;;;;;5.50;99.90;;;;;;5095852;28;19965;-82
2021/12/24 03:58:51;;;;;;;;;;;5.60;99.90;;;;;;5095519;28;19916;-82
2021/12/24 04:01:17;;;;;;;;;;;5.70;99.90;;;;;;5095696;28;19912;-83
2021/12/24 04:03:42;;;;;;;;;;;5.50;99.90;;;;;;5095382;28;20006;-83
2021/12/24 04:06:08;;;;;;;;;;;5.40;99.90;;;;;;5095461;28;20347;-84
2021/12/24 04:08:34;;;;;;;;;;;5.30;99.90;;;;;;5095493;28;19961;-83
2021/12/24 04:11:00;;;;;;;;;;;5.30;99.90;;;;;;5095235;28;19912;-83
2021/12/24 04:13:25;;;;;;;;;;;5.30;99.90;;;;;;5095135;28;19915;-82
2021/12/24 04:15:51;;;;;;;;;;;5.30;99.90;;;;;;5095038;28;19916;-83
2021/12/24 04:18:24;;;;;;;;;;;5.30;99.90;;;;;;5095084;28;19912;-83
2021/12/24 04:26:17;;;;;;;;;;;5.60;99.90;;;;;;5095071;28;19998;-83
2021/12/24 04:28:43;;;;;;;;;;;5.40;99.90;;;;;;5095037;28;19973;-83
2021/12/24 04:31:09;;;;;;;;;;;5.30;99.90;;;;;;5095057;28;19915;-82
2021/12/24 04:33:38;;;;;;;;;;;5.20;99.90;;;;;;5094321;28;19915;-82
2021/12/24 04:36:41;;;;;;;;;;;5.20;99.90;;;;;;5094918;28;19908;-82
2021/12/24 05:03:14;;;;;;;;;;;4.70;99.90;;;;;;5073857;28;20378;-82
2021/12/24 05:05:47;;;;;;;;;;;4.80;99.90;;;;;;5074053;28;20343;-82
2021/12/24 05:10:39;;;;;;;;;;;4.90;99.90;;;;;;5073975;28;19920;-82
2021/12/24 05:13:06;;;;;;;;;;;5.00;99.90;;;;;;5073925;28;19954;-82
2021/12/24 05:15:34;;;;;;;;;;;4.90;99.90;;;;;;5074038;28;19934;-82
2021/12/24 05:23:09;;;;;;;;;;;5.10;99.90;;;;;;5073706;28;19965;-82
2021/12/24 05:25:40;;;;;;;;;;;5.10;99.90;;;;;;5073492;28;20011;-82
2021/12/24 05:28:06;;;;;;;;;;;5.20;99.90;;;;;;5073180;28;19943;-83
2021/12/24 05:30:31;;;;;;;;;;;5.30;99.90;;;;;;5073710;28;20363;-82
2021/12/24 05:32:57;;;;;;;;;;;5.40;99.90;;;;;;5073377;28;19944;-82
2021/12/24 05:35:23;;;;;;;;;;;5.60;99.90;;;;;;5073778;28;19912;-82
2021/12/24 05:37:48;;;;;;;;;;;5.60;99.90;;;;;;5073313;28;20278;-82
2021/12/24 05:40:14;;;;;;;;;;;5.70;99.90;;;;;;5073585;28;20010;-82
2021/12/24 05:42:39;;;;;;;;;;;5.70;99.90;;;;;;5073553;28;19916;-82
2021/12/24 05:45:07;;;;;;;;;;;5.80;99.90;;;;;;5085207;28;19912;-82
2021/12/24 05:47:33;;;;;;;;;;;5.90;99.90;;;;;;5093739;28;19915;-82
2021/12/24 05:49:59;;;;;;;;;;;5.90;99.90;;;;;;5093570;28;19908;-82
2021/12/24 05:52:24;;;;;;;;;;;6.00;99.90;;;;;;5093538;28;19912;-82
2021/12/24 05:54:50;;;;;;;;;;;6.00;99.90;;;;;;5093246;28;20333;-82
2021/12/24 05:57:16;;;;;;;;;;;6.10;99.90;;;;;;5092630;28;19912;-82
2021/12/24 05:59:42;;;;;;;;;;;6.10;99.90;;;;;;5093309;28;19918;-83
2021/12/24 06:02:08;;;;;;;;;;;6.10;99.90;;;;;;5093450;28;19915;-82
2021/12/24 06:04:33;;;;;;;;;;;5.70;99.90;;;;;;5093414;28;19908;-83
2021/12/24 06:06:59;;;;;;;;;;;5.60;99.90;;;;;;5093343;28;19915;-83
2021/12/24 06:09:24;;;;;;;;;;;5.40;99.90;;;;;;5093286;28;19908;-82
2021/12/24 06:11:50;;;;;;;;;;;5.50;99.90;;;;;;5093481;28;19912;-82
2021/12/24 06:14:16;;;;;;;;;;;5.80;99.90;;;;;;5093092;28;20584;-82
2021/12/24 06:16:49;;;;;;;;;;;6.10;99.90;;;;;;5093084;28;20378;-82
2021/12/24 06:19:15;;;;;;;;;;;6.10;99.90;;;;;;5093140;28;19949;-82
2021/12/24 06:21:41;;;;;;;;;;;6.10;99.90;;;;;;5093221;28;19908;-82
2021/12/24 06:24:07;;;;;;;;;;;6.30;99.90;;;;;;5093253;28;19919;-82
2021/12/24 06:26:33;;;;;;;;;;;6.40;99.90;;;;;;5093092;28;19943;-82
2021/12/24 06:28:59;;;;;;;;;;;6.20;99.90;;;;;;5092769;28;20343;-82
2021/12/24 06:31:24;;;;;;;;;;;5.90;99.90;;;;;;5093046;28;19908;-82
2021/12/24 06:33:50;;;;;;;;;;;5.80;99.90;;;;;;5092985;28;20347;-82
2021/12/24 06:36:16;;;;;;;;;;;5.70;99.90;;;;;;5092868;28;19908;-82
2021/12/24 06:38:42;;;;;;;;;;;5.70;99.90;;;;;;5093028;28;20649;-82
2021/12/24 06:41:09;;;;;;;;;;;5.80;99.90;;;;;;5093262;28;19957;-83
2021/12/24 06:43:35;;;;;;;;;;;5.70;99.90;;;;;;5093004;28;19912;-82
2021/12/24 06:46:01;;;;;;;;;;;5.70;99.90;;;;;;5092993;28;19912;-82
2021/12/24 06:48:26;;;;;;;;;;;5.50;99.90;;;;;;5092943;28;19934;-82
2021/12/24 06:50:52;;;;;;;;;;;5.70;99.90;;;;;;5074992;28;20712;-82
2021/12/24 06:53:17;;;;;;;;;;;5.60;99.90;;;;;;5093101;28;20007;-82
2021/12/24 06:55:43;;;;;;;;;;;5.50;99.90;;;;;;5093080;28;20000;-82
2021/12/24 06:58:09;;;;;;;;;;;5.50;99.90;;;;;;5096209;28;19908;-82
2021/12/24 07:00:35;;;;;;;;;;;5.50;99.90;;;;;;5078225;28;20355;-82
2021/12/24 07:03:00;;;;;;;;;;;5.70;99.90;;;;;;5096518;28;19908;-82
2021/12/24 07:05:26;;;;;;;;;;;5.90;99.90;;;;;;5096361;28;20271;-82
2021/12/24 07:07:52;;;;;;;;;;;6.00;99.90;;;;;;5096347;28;20275;-82
2021/12/24 07:10:17;;;;;;;;;;;6.00;99.90;;;;;;5096645;28;19908;-82
2021/12/24 07:12:43;;;;;;;;;;;6.00;99.90;;;;;;5096476;28;20422;-82
2021/12/24 07:15:10;;;;;;;;;;;5.90;99.90;;;;;;5104573;28;19919;-82
2021/12/24 07:17:35;;;;;;;;;;;6.00;99.90;;;;;;5116935;28;19908;-82
2021/12/24 07:20:01;;;;;;;;;;;6.10;99.90;;;;;;5116538;28;20287;-82
2021/12/24 07:22:27;;;;;;;;;;;6.10;99.90;;;;;;5116427;28;19960;-82
2021/12/24 07:24:52;;;;;;;;;;;6.20;99.90;;;;;;5116471;28;20193;-82
2021/12/24 07:27:19;;;;;;;;;;;6.20;99.90;;;;;;5116166;28;19919;-82
2021/12/24 07:29:44;;;;;;;;;;;6.20;99.90;;;;;;5116509;28;20349;-82
2021/12/24 07:32:10;;;;;;;;;;;6.20;99.90;;;;;;5116618;28;19959;-82
2021/12/24 07:34:36;;;;;;;;;;;6.30;99.90;;;;;;5116538;28;19942;-82
2021/12/24 07:37:01;;;;;;;;;;;6.30;99.90;;;;;;5116455;28;19979;-82
2021/12/24 07:39:27;;;;;;;;;;;6.20;99.90;;;;;;5116461;28;20060;-82
2021/12/24 07:41:52;;;;;;;;;;;6.10;99.90;;;;;;5116330;28;19907;-82
2021/12/24 07:44:19;;;;;;;;;;;6.00;99.90;;;;;;5116365;28;19914;-82
2021/12/24 07:46:52;;;;;;;;;;;6.10;99.90;;;;;;5116321;28;20392;-82
2021/12/24 07:49:30;;;;;;;;;;;6.00;99.90;;;;;;5116249;28;19954;-82
2021/12/24 07:52:08;;;;;;;;;;;6.20;99.90;;;;;;5116304;28;20382;-83
2021/12/24 07:54:35;;;;;;;;;;;6.30;99.90;;;;;;5116043;28;19907;-82
2021/12/24 07:57:01;;;;;;;;;;;6.30;99.90;;;;;;5115975;28;19912;-82
2021/12/24 07:59:28;;;;;;;;;;;6.30;99.90;;;;;;5115198;28;20012;-82
2021/12/24 08:01:53;;;;;;;;;;;6.30;99.90;;;;;;5115628;28;19907;-82
2021/12/24 08:04:19;;;;;;;;;;;6.40;99.90;;;;;;5116007;28;20367;-82
2021/12/24 08:06:45;;;;;;;;;;;6.60;99.90;;;;;;5116006;28;19919;-82
2021/12/24 08:09:11;;;;;;;;;;;6.80;99.90;;;;;;5115033;28;19943;-81
2021/12/24 08:11:37;;;;;;;;;;;7.10;99.90;;;;;;5115817;28;19950;-82
2021/12/24 08:14:05;;;;;;;;;;;7.00;99.90;;;;;;5115812;28;20345;-82
2021/12/24 08:16:31;;;;;;;;;;;6.90;99.90;;;;;;5115892;28;20000;-81
2021/12/24 08:18:58;;;;;;;;;;;6.90;99.90;;;;;;5115530;28;19911;-81
2021/12/24 08:21:24;;;;;;;;;;;6.70;99.90;;;;;;5115571;28;20581;-81
2021/12/24 08:23:50;;;;;;;;;;;6.50;99.90;;;;;;5115576;28;20355;-81
2021/12/24 08:26:16;;;;;;;;;;;6.50;99.90;;;;;;5115430;28;19921;-82
2021/12/24 08:28:42;;;;;;;;;;;6.70;99.90;;;;;;5115649;28;19914;-82
2021/12/24 08:31:08;;;;;;;;;;;6.90;99.90;;;;;;5116118;28;19969;-82
2021/12/24 08:33:34;;;;;;;;;;;7.10;99.90;;;;;;5115496;28;19907;-81
2021/12/24 08:36:04;;;;;;;;;;;7.30;99.90;;;;;;5116989;28;20354;-82
2021/12/24 08:38:29;;;;;;;;;;;7.30;99.90;;;;;;5117140;28;19908;-82
2021/12/24 08:40:55;;;;;;;;;;;7.40;99.90;;;;;;5115857;28;19916;-82
2021/12/24 08:43:20;;;;;;;;;;;7.50;99.90;;;;;;5100321;28;20397;-81
2021/12/24 08:45:46;;;;;;;;;;;7.50;99.90;;;;;;5079434;28;19967;-81
2021/12/24 08:48:12;;;;;;;;;;;7.50;99.90;;;;;;5078389;28;19911;-80
2021/12/24 08:50:37;;;;;;;;;;;7.40;99.90;;;;;;5113528;28;20248;-82
2021/12/24 08:53:03;;;;;;;;;;;7.30;99.90;;;;;;5097894;28;19908;-82
2021/12/24 08:55:29;;;;;;;;;;;7.20;99.90;;;;;;5056649;28;20385;-79
2021/12/24 08:57:54;;;;;;;;;;;7.40;99.90;;;;;;5072207;28;20355;-79
2021/12/24 09:00:21;;;;;;;;;;;7.50;99.90;;;;;;5070775;28;19927;-81
2021/12/24 09:02:47;;;;;;;;;;;7.60;99.90;;;;;;5092261;28;19995;-81
2021/12/24 09:05:13;;;;;;;;;;;7.60;99.90;;;;;;5074961;28;20413;-82
2021/12/24 09:07:40;;;;;;;;;;;8.30;99.90;;;;;;5093813;28;19923;-82
2021/12/24 09:10:07;;;;;;;;;;;8.70;99.90;;;;;;5093258;28;19930;-84
2021/12/24 09:12:32;;;;;;;;;;;8.60;99.90;;;;;;5092461;28;19958;-84
2021/12/24 09:14:58;;;;;;;;;;;8.30;99.90;;;;;;5094447;28;19943;-83
2021/12/24 09:17:24;;;;;;;;;;;8.20;99.90;;;;;;5102161;28;20274;-83
2021/12/24 09:19:52;;;;;;;;;;;8.30;99.90;;;;;;5113975;28;19923;-82
2021/12/24 09:22:18;;;;;;;;;;;8.20;99.90;;;;;;5113751;28;20285;-82
2021/12/24 09:24:48;;;;;;;;;;;8.20;99.90;;;;;;5110403;28;19915;-85
2021/12/24 09:27:14;;;;;;;;;;;8.20;99.90;;;;;;5096178;28;19919;-83
2021/12/24 09:29:40;;;;;;;;;;;8.10;99.90;;;;;;5112273;28;19911;-81
2021/12/24 09:32:05;;;;;;;;;;;8.20;99.90;;;;;;5114112;28;20461;-82
2021/12/24 09:34:31;;;;;;;;;;;8.20;99.90;;;;;;5112575;28;19914;-82
2021/12/24 09:36:57;;;;;;;;;;;8.20;99.90;;;;;;5112602;28;19915;-83
2021/12/24 09:39:22;;;;;;;;;;;8.20;99.90;;;;;;5112532;28;19915;-82
2021/12/24 09:41:48;;;;;;;;;;;8.20;99.90;;;;;;5113339;28;19915;-80
2021/12/24 09:44:14;;;;;;;;;;;8.20;99.90;;;;;;5112642;28;19911;-80
2021/12/24 09:46:42;;;;;;;;;;;8.10;99.90;;;;;;5112437;28;20385;-83
2021/12/24 09:49:08;;;;;;;;;;;8.10;99.90;;;;;;5113591;28;20251;-83
2021/12/24 09:51:38;;;;;;;;;;;8.40;99.90;;;;;;5108949;28;20283;-82
2021/12/24 09:54:08;;;;;;;;;;;8.50;99.90;;;;;;5091899;28;19919;-80
2021/12/24 09:56:33;;;;;;;;;;;8.50;99.90;;;;;;5084694;28;19920;-80
2021/12/24 09:58:59;;;;;;;;;;;8.60;99.90;;;;;;5071703;28;19923;-81
2021/12/24 10:01:51;;;;;;;;;;;8.50;99.90;;;;;;5070239;28;20362;-81
2021/12/24 10:04:19;;;;;;;;;;;8.60;99.90;;;;;;5067338;28;19912;-82
2021/12/24 10:06:49;;;;;;;;;;;8.60;99.90;;;;;;5092260;28;20424;-81
2021/12/24 10:09:16;;;;;;;;;;;8.70;99.90;;;;;;5092290;28;19916;-83
2021/12/24 10:11:46;;;;;;;;;;;9.00;99.90;;;;;;5091638;28;19908;-81
2021/12/24 10:14:12;;;;;;;;;;;8.90;99.90;;;;;;5091766;28;19979;-82
2021/12/24 10:16:45;;;;;;;;;;;8.90;99.90;;;;;;5105598;28;20281;-81
2021/12/24 10:19:11;;;;;;;;;;;8.90;99.90;;;;;;5073531;28;20340;-82
2021/12/24 10:21:37;;;;;;;;;;;8.90;99.90;;;;;;5074272;28;19909;-81
2021/12/24 10:24:04;;;;;;;;;;;8.70;99.90;;;;;;5072609;28;19908;-80
2021/12/24 10:26:35;;;;;;;;;;;8.70;99.90;;;;;;5092547;28;19924;-82
2021/12/24 10:29:08;;;;;;;;;;;8.80;99.90;;;;;;5091853;28;19951;-84
2021/12/24 10:31:43;;;;;;;;;;;8.80;99.90;;;;;;5092672;28;19912;-83
2021/12/24 10:34:18;;;;;;;;;;;8.90;99.90;;;;;;5095789;28;19912;-83
2021/12/24 10:36:49;;;;;;;;;;;9.00;99.90;;;;;;5111751;28;19915;-81
2021/12/24 10:39:21;;;;;;;;;;;9.00;99.90;;;;;;5102455;28;19912;-83
2021/12/24 10:41:48;;;;;;;;;;;9.20;99.90;;;;;;5096037;28;20024;-84
2021/12/24 10:44:25;;;;;;;;;;;9.20;99.90;;;;;;5096007;28;20386;-84
2021/12/24 10:47:00;;;;;;;;;;;9.20;99.90;;;;;;5077334;28;19919;-82
2021/12/24 10:55:02;;;;;;;;;;;9.50;99.90;;;;;;5085844;28;19964;-80
2021/12/24 10:57:32;;;;;;;;;;;9.60;99.90;;;;;;5088145;28;19915;-83
2021/12/24 10:59:59;;;;;;;;;;;9.60;99.90;;;;;;5091655;28;19924;-83
2021/12/24 11:02:35;;;;;;;;;;;9.70;99.90;;;;;;5094948;28;19912;-84
2021/12/24 11:05:01;;;;;;;;;;;10.00;99.90;;;;;;5092931;28;19981;-83
2021/12/24 11:07:31;;;;;;;;;;;9.90;99.90;;;;;;5093478;28;19912;-84
2021/12/24 11:10:04;;;;;;;;;;;9.50;99.90;;;;;;5096107;28;20002;-83
2021/12/24 11:12:36;;;;;;;;;;;9.50;99.90;;;;;;5102010;28;19907;-81
2021/12/24 11:15:16;;;;;;;;;;;9.40;99.90;;;;;;5090738;28;20442;-78
2021/12/24 11:17:41;;;;;;;;;;;9.40;99.90;;;;;;5102540;28;19915;-77
2021/12/24 11:20:10;;;;;;;;;;;9.30;99.90;;;;;;5096959;28;19920;-76
2021/12/24 11:22:57;;;;;;;;;;;9.50;99.90;;;;;;5096886;28;19908;-78
2021/12/24 11:25:23;;;;;;;;;;;9.50;99.90;;;;;;5081443;28;20438;-77
2021/12/24 11:27:49;;;;;;;;;;;9.50;99.90;;;;;;5100987;28;19952;-77
2021/12/24 11:30:15;;;;;;;;;;;9.50;99.90;;;;;;5088823;28;19950;-77
2021/12/24 11:32:40;;;;;;;;;;;9.50;99.90;;;;;;5087603;28;20006;-77
2021/12/24 11:35:06;;;;;;;;;;;9.50;99.90;;;;;;5089908;28;20284;-77
2021/12/24 11:37:33;;;;;;;;;;;9.40;99.90;;;;;;5075490;28;19908;-77
2021/12/24 11:39:59;;;;;;;;;;;9.30;99.90;;;;;;5088317;28;20465;-77
2021/12/24 11:42:29;;;;;;;;;;;9.10;99.90;;;;;;5098477;28;20351;-79
2021/12/24 11:44:55;;;;;;;;;;;9.10;99.90;;;;;;5102704;28;19908;-77
2021/12/24 11:47:21;;;;;;;;;;;9.10;99.90;;;;;;5104827;28;19908;-77
2021/12/24 11:49:47;;;;;;;;;;;9.20;99.90;;;;;;5104811;28;19908;-78
2021/12/24 11:52:13;;;;;;;;;;;9.20;99.90;;;;;;5104008;28;19915;-79
2021/12/24 11:54:38;;;;;;;;;;;9.40;99.90;;;;;;5095050;28;19998;-77
2021/12/24 11:57:15;;;;;;;;;;;9.50;99.90;;;;;;5092905;28;19912;-76
2021/12/24 11:59:41;;;;;;;;;;;9.60;99.90;;;;;;5093029;28;19927;-77
2021/12/24 12:02:07;;;;;;;;;;;9.40;99.90;;;;;;5081943;28;20297;-78
2021/12/24 12:04:32;;;;;;;;;;;9.40;99.90;;;;;;5104465;28;19922;-77
2021/12/24 12:07:11;;;;;;;;;;;9.10;99.90;;;;;;5093039;28;19911;-79
2021/12/24 12:09:40;;;;;;;;;;;9.20;99.90;;;;;;5074797;28;20271;-79
2021/12/24 12:12:06;;;;;;;;;;;9.30;99.90;;;;;;5093826;28;20003;-77
2021/12/24 12:14:34;;;;;;;;;;;9.40;99.90;;;;;;5113954;28;19994;-77
2021/12/24 12:17:01;;;;;;;;;;;9.50;99.90;;;;;;5113696;28;20382;-77
2021/12/24 12:19:31;;;;;;;;;;;9.50;99.90;;;;;;5113823;28;19911;-77
2021/12/24 12:22:12;;;;;;;;;;;9.50;99.90;;;;;;5095156;28;20350;-79
2021/12/24 12:27:18;;;;;;;;;;;9.50;99.90;;;;;;5092605;28;19911;-78
2021/12/24 12:29:44;;;;;;;;;;;9.50;99.90;;;;;;5102633;28;19990;-75
2021/12/24 12:32:13;;;;;;;;;;;9.40;99.90;;;;;;5101665;28;20680;-75
2021/12/24 12:34:41;;;;;;;;;;;9.50;99.90;;;;;;5108424;28;19916;-76
2021/12/24 12:37:14;;;;;;;;;;;9.60;99.90;;;;;;5100862;28;19908;-76
2021/12/24 12:39:40;;;;;;;;;;;9.60;99.90;;;;;;5100458;28;19912;-76
2021/12/24 12:42:06;;;;;;;;;;;9.70;99.90;;;;;;5103686;28;19923;-76
2021/12/24 12:44:32;;;;;;;;;;;9.70;99.90;;;;;;5111899;28;19908;-76
2021/12/24 12:47:11;;;;;;;;;;;9.70;99.90;;;;;;5104979;28;19941;-78
2021/12/24 12:49:37;;;;;;;;;;;9.80;99.90;;;;;;5090590;28;19982;-77
2021/12/24 12:52:06;;;;;;;;;;;9.80;99.90;;;;;;5092147;28;19912;-76
2021/12/24 12:54:35;;;;;;;;;;;9.90;99.90;;;;;;5090712;28;19912;-75
2021/12/24 12:57:15;;;;;;;;;;;10.00;99.90;;;;;;5107726;28;20266;-75
2021/12/24 12:59:41;;;;;;;;;;;10.00;99.90;;;;;;5092325;28;19920;-75
2021/12/24 13:02:07;;;;;;;;;;;10.00;99.90;;;;;;5098121;28;19911;-74
2021/12/24 13:04:32;;;;;;;;;;;10.00;99.90;;;;;;5100818;28;19908;-75
2021/12/24 13:06:58;;;;;;;;;;;10.00;99.90;;;;;;5095213;28;19908;-75
2021/12/24 13:09:27;;;;;;;;;;;10.00;99.90;;;;;;5091612;28;19908;-76
2021/12/24 13:11:54;;;;;;;;;;;10.00;99.90;;;;;;5095346;28;19915;-76
2021/12/24 13:14:21;;;;;;;;;;;10.10;99.90;;;;;;5113024;28;19982;-76
2021/12/24 13:16:54;;;;;;;;;;;10.20;99.90;;;;;;5114242;28;19915;-75
2021/12/24 13:24:56;;;;;;;;;;;10.30;99.90;;;;;;5092800;28;20362;-84
2021/12/24 13:27:25;;;;;;;;;;;10.40;99.90;;;;;;5086916;28;20274;-78
2021/12/24 13:30:17;;;;;;;;;;;10.60;99.90;;;;;;5076339;28;20283;-82
2021/12/24 13:32:47;;;;;;;;;;;10.70;99.90;;;;;;5069046;28;19915;-75
2021/12/24 13:35:13;;;;;;;;;;;10.70;99.90;;;;;;5071982;28;19940;-79
2021/12/24 13:37:45;;;;;;;;;;;10.70;99.90;;;;;;5072294;28;19913;-76
2021/12/24 13:40:11;;;;;;;;;;;10.60;99.90;;;;;;5086829;28;20069;-78
2021/12/24 13:42:40;;;;;;;;;;;10.60;99.90;;;;;;5096869;28;19967;-77
2021/12/24 13:45:06;;;;;;;;;;;10.80;99.90;;;;;;5101592;28;19908;-76
2021/12/24 13:50:27;;;;;;;;;;;10.80;99.90;;;;;;5091483;28;19912;-77
2021/12/24 13:55:41;;;;;;;;;;;11.00;99.90;;;;;;5091863;28;19961;-79
2021/12/24 13:58:09;;;;;;;;;;;10.90;99.90;;;;;;5104489;28;19915;-77
2021/12/24 14:00:36;;;;;;;;;;;10.90;99.90;;;;;;5100352;28;20361;-81
2021/12/24 14:03:07;;;;;;;;;;;10.80;99.90;;;;;;5102435;28;20282;-82
2021/12/24 14:05:42;;;;;;;;;;;10.80;99.90;;;;;;5103607;28;20394;-78
2021/12/24 14:08:08;;;;;;;;;;;10.80;99.90;;;;;;5105839;28;20056;-82
2021/12/24 14:10:34;;;;;;;;;;;10.80;99.90;;;;;;5099419;28;19991;-79
2021/12/24 14:13:07;;;;;;;;;;;10.80;99.90;;;;;;5101571;28;20002;-83
2021/12/24 14:15:45;;;;;;;;;;;10.70;99.90;;;;;;5101674;28;19918;-79
2021/12/24 14:21:46;;;;;;;;;;;10.70;99.90;;;;;;5099516;28;20386;-78
2021/12/24 14:24:14;;;;;;;;;;;10.60;99.90;;;;;;5056628;28;19955;-82
2021/12/24 14:26:43;;;;;;;;;;;10.60;99.90;;;;;;5093537;28;19923;-78
2021/12/24 14:29:09;;;;;;;;;;;10.60;99.90;;;;;;5100005;28;19908;-79
2021/12/24 14:31:51;;;;;;;;;;;10.50;99.90;;;;;;5101732;28;19915;-78
2021/12/24 14:34:30;;;;;;;;;;;10.50;99.90;;;;;;5099298;28;19912;-78
2021/12/24 14:36:58;;;;;;;;;;;10.50;99.90;;;;;;5097683;28;19915;-79
2021/12/24 14:39:23;;;;;;;;;;;10.50;99.90;;;;;;5099898;28;20002;-82
2021/12/24 14:42:07;;;;;;;;;;;10.40;99.90;;;;;;5101984;28;20007;-82
2021/12/24 14:44:32;;;;;;;;;;;10.40;99.90;;;;;;5102423;28;19908;-79
2021/12/24 14:46:58;;;;;;;;;;;10.50;99.90;;;;;;5099198;28;19934;-80
2021/12/24 14:49:34;;;;;;;;;;;10.60;99.90;;;;;;5101519;28;19907;-79
2021/12/24 14:52:13;;;;;;;;;;;10.60;99.90;;;;;;5098951;28;20352;-80
2021/12/24 14:54:58;;;;;;;;;;;10.40;99.90;;;;;;5097671;28;19973;-79
2021/12/24 14:57:25;;;;;;;;;;;10.50;99.90;;;;;;5099230;28;19923;-82
2021/12/24 14:59:51;;;;;;;;;;;10.50;99.90;;;;;;5105667;28;19951;-78
2021/12/24 15:02:17;;;;;;;;;;;10.50;99.90;;;;;;5101092;28;19935;-78
2021/12/24 15:04:42;;;;;;;;;;;10.40;99.90;;;;;;5102078;28;19921;-79
2021/12/24 15:07:09;;;;;;;;;;;10.40;99.90;;;;;;5100682;28;20438;-78
2021/12/24 15:09:35;;;;;;;;;;;10.30;99.90;;;;;;5099290;28;19956;-78
2021/12/24 15:12:14;;;;;;;;;;;10.20;99.90;;;;;;5085254;28;19911;-82
2021/12/24 15:14:40;;;;;;;;;;;10.20;99.90;;;;;;5099282;28;19922;-81
2021/12/24 15:17:06;;;;;;;;;;;10.30;99.90;;;;;;5098821;28;19953;-79
2021/12/24 15:19:32;;;;;;;;;;;10.20;99.90;;;;;;5094199;28;19916;-82
2021/12/24 15:21:57;;;;;;;;;;;10.10;99.90;;;;;;5093369;28;20695;-81
2021/12/24 15:24:23;;;;;;;;;;;10.00;99.90;;;;;;5075330;28;19918;-78
2021/12/24 15:26:49;;;;;;;;;;;10.00;99.90;;;;;;5094393;28;19916;-79
2021/12/24 15:29:14;;;;;;;;;;;10.10;99.90;;;;;;5093577;28;19908;-82
2021/12/24 15:31:41;;;;;;;;;;;10.10;99.90;;;;;;5093306;28;19919;-77
2021/12/24 15:34:06;;;;;;;;;;;10.00;99.90;;;;;;5095693;28;19951;-80
2021/12/24 15:36:32;;;;;;;;;;;10.00;99.90;;;;;;5094882;28;20412;-79
2021/12/24 15:39:00;;;;;;;;;;;10.00;99.90;;;;;;5094033;28;19908;-82
2021/12/24 15:41:25;;;;;;;;;;;9.70;99.90;;;;;;5094802;28;19912;-79
2021/12/24 15:43:51;;;;;;;;;;;9.60;99.90;;;;;;5095167;28;19914;-78
2021/12/24 15:46:17;;;;;;;;;;;9.50;99.90;;;;;;5094454;28;19995;-78
2021/12/24 15:48:43;;;;;;;;;;;9.80;99.90;;;;;;5094775;28;19936;-81
2021/12/24 15:51:09;;;;;;;;;;;9.80;99.90;;;;;;5094139;28;19915;-79
2021/12/24 15:53:35;;;;;;;;;;;9.80;99.90;;;;;;5100618;28;19915;-78
2021/12/24 15:56:04;;;;;;;;;;;9.60;99.90;;;;;;5099580;28;20389;-78
2021/12/24 15:58:30;;;;;;;;;;;9.70;99.90;;;;;;5104005;28;19908;-82
2021/12/24 16:00:56;;;;;;;;;;;9.70;99.90;;;;;;5110249;28;19919;-83
2021/12/24 16:03:22;;;;;;;;;;;9.70;99.90;;;;;;5105225;28;19908;-77
2021/12/24 16:05:49;;;;;;;;;;;9.60;99.90;;;;;;5103446;28;19908;-78
2021/12/24 16:08:18;;;;;;;;;;;9.60;99.90;;;;;;5103679;28;19943;-77
2021/12/24 16:10:44;;;;;;;;;;;9.50;99.90;;;;;;5107636;28;20348;-80